Time;durP1;ratioP1;P1;durP2;ratioP2;P2;SDS_P1;SDS_P2;PMS_P1;PMS_P2;Temp;Humidity;BMP_temperature;BMP_pressure;BME280_temperature;BME280_humidity;BME280_pressure;Samples;Min_cycle;Max_cycle;Signal;HPM_P1;HPM_P2
2023/01/27 00:00:31;;;;;;;17.02;9.40;;;;;;;-0.68;63.61;100102.63;5073014;28;20027;-63
2023/01/27 00:02:56;;;;;;;15.60;8.30;;;;;;;-0.66;63.96;100103.44;5072824;28;20052;-63
2023/01/27 00:05:22;;;;;;;15.63;8.50;;;;;;;-0.87;63.92;100071.63;5072922;28;20140;-66
2023/01/27 00:07:48;;;;;;;15.40;8.68;;;;;;;-0.69;63.61;100112.28;5073053;28;20116;-64
2023/01/27 00:10:16;;;;;;;15.50;8.77;;;;;;;-0.70;63.58;100099.19;5073003;28;20068;-62
2023/01/27 00:15:27;;;;;;;13.15;6.43;;;;;;;-0.62;63.22;100110.34;5072529;28;20033;-64
2023/01/27 00:17:53;;;;;;;16.55;8.50;;;;;;;-0.75;63.59;100118.56;5072818;28;20043;-64
2023/01/27 00:24:34;;;;;;;17.98;9.20;;;;;;;-0.76;63.87;100114.22;5072982;28;20059;-64
2023/01/27 00:25:57;;;;;;;14.52;8.85;;;;;;;-0.99;63.58;100079.84;5072292;28;20028;-64
2023/01/27 00:28:24;;;;;;;18.85;8.63;;;;;;;-0.82;64.46;100117.03;5072703;28;20036;-65
2023/01/27 00:30:49;;;;;;;14.13;7.80;;;;;;;-0.89;64.56;100097.09;5072680;28;20090;-63
2023/01/27 00:33:24;;;;;;;14.32;8.15;;;;;;;-0.97;64.33;100072.78;5072630;28;20029;-63
2023/01/27 00:35:56;;;;;;;15.43;8.18;;;;;;;-0.69;64.47;100108.81;5072418;28;20053;-62
2023/01/27 00:38:21;;;;;;;16.65;8.93;;;;;;;-0.70;64.24;100105.28;5072650;28;20470;-64
2023/01/27 00:41:14;;;;;;;13.98;8.23;;;;;;;-0.67;64.18;100091.22;5075474;28;20064;-63
2023/01/27 00:43:32;;;;;;;12.82;7.47;;;;;;;-0.63;64.15;100095.47;5078384;28;20146;-62
2023/01/27 00:45:58;;;;;;;14.15;8.18;;;;;;;-0.70;64.00;100086.03;5078219;28;20044;-64
2023/01/27 00:48:23;;;;;;;16.05;7.82;;;;;;;-0.73;64.62;100105.38;5079148;28;20100;-62
2023/01/27 00:50:48;;;;;;;15.95;8.32;;;;;;;-0.76;64.41;100101.06;5079305;28;20067;-63
2023/01/27 00:53:14;;;;;;;14.63;8.13;;;;;;;-0.76;64.83;100087.91;5079211;28;20055;-63
2023/01/27 00:55:40;;;;;;;16.83;8.50;;;;;;;-0.79;64.71;100093.28;5078904;28;20040;-62
2023/01/27 00:58:05;;;;;;;14.75;8.48;;;;;;;-0.78;64.58;100084.47;5078333;28;20024;-62
2023/01/27 01:00:31;;;;;;;16.67;8.45;;;;;;;-0.73;64.43;100086.97;5079211;28;20028;-63
2023/01/27 01:02:56;;;;;;;19.48;8.60;;;;;;;-0.71;64.78;100089.59;5078409;28;20036;-61
2023/01/27 01:05:22;;;;;;;17.52;8.50;;;;;;;-0.67;64.23;100086.78;5078992;28;20032;-61
2023/01/27 01:07:47;;;;;;;14.30;8.55;;;;;;;-0.77;64.57;100078.31;5078861;28;20032;-63
2023/01/27 01:10:13;;;;;;;14.77;8.32;;;;;;;-0.75;64.56;100083.53;5078650;28;20032;-62
2023/01/27 01:12:38;;;;;;;18.83;8.82;;;;;;;-0.77;65.20;100077.47;5078233;28;20165;-63
2023/01/27 01:15:04;;;;;;;17.35;8.00;;;;;;;-0.77;65.24;100082.72;5078930;28;20089;-64
2023/01/27 01:17:29;;;;;;;13.77;8.10;;;;;;;-0.77;65.10;100083.56;5078971;28;20362;-61
2023/01/27 01:19:55;;;;;;;16.25;7.78;;;;;;;-0.82;65.01;100080.22;5077957;28;20048;-62
2023/01/27 01:22:20;;;;;;;13.43;8.23;;;;;;;-1.02;65.41;100046.66;5078794;28;20025;-61
2023/01/27 01:24:45;;;;;;;13.23;8.02;;;;;;;-0.81;65.22;100084.56;5078376;28;20962;-63
2023/01/27 01:27:12;;;;;;;13.68;7.95;;;;;;;-0.78;65.17;100087.09;5078939;28;20035;-63
2023/01/27 01:29:37;;;;;;;12.48;7.75;;;;;;;-0.81;65.19;100091.63;5078519;28;20040;-62
2023/01/27 01:32:03;;;;;;;13.18;8.32;;;;;;;-0.81;65.13;100092.47;5078536;28;20089;-64
2023/01/27 01:34:28;;;;;;;12.65;7.63;;;;;;;-0.80;65.37;100078.41;5078373;28;20032;-63
2023/01/27 01:36:54;;;;;;;13.02;7.03;;;;;;;-0.83;65.09;100078.50;5077984;28;20044;-62
2023/01/27 01:39:20;;;;;;;12.77;7.65;;;;;;;-0.84;65.36;100068.91;5078233;28;20048;-62
2023/01/27 01:41:45;;;;;;;12.38;7.53;;;;;;;-0.84;65.38;100074.16;5078335;28;20035;-63
2023/01/27 01:44:19;;;;;;;12.57;7.70;;;;;;;-0.84;65.79;100076.78;5077696;28;20033;-62
2023/01/27 01:46:44;;;;;;;12.23;7.60;;;;;;;-0.89;65.43;100078.69;5078627;28;20043;-64
2023/01/27 01:49:10;;;;;;;12.13;7.25;;;;;;;-0.95;65.44;100071.00;5078249;28;20036;-64
2023/01/27 01:51:41;;;;;;;11.75;7.22;;;;;;;-0.93;65.78;100069.19;5076944;28;20028;-63
2023/01/27 01:54:39;;;;;;;16.05;7.35;;;;;;;-0.92;65.66;100076.16;5075262;28;20036;-63
2023/01/27 01:57:26;;;;;;;11.50;7.03;;;;;;;-0.92;64.72;100076.16;5073787;28;20132;-63
2023/01/27 02:00:05;;;;;;;11.40;6.40;;;;;;;-1.01;65.36;100079.91;5074921;28;20090;-64
2023/01/27 02:02:32;;;;;;;9.48;6.05;;;;;;;-1.06;65.42;100077.41;5074797;28;20043;-63
2023/01/27 02:05:05;;;;;;;9.07;6.10;;;;;;;-1.10;64.92;100083.66;5075611;28;20119;-63
2023/01/27 02:07:42;;;;;;;14.48;6.43;;;;;;;-1.24;65.76;100049.00;5075116;28;20489;-62
2023/01/27 02:10:08;;;;;;;9.75;5.95;;;;;;;-1.14;65.90;100081.16;5074938;28;20124;-62
2023/01/27 02:12:34;;;;;;;10.85;5.90;;;;;;;-1.17;65.56;100068.97;5074061;28;20414;-63
2023/01/27 02:14:59;;;;;;;9.23;5.70;;;;;;;-1.32;65.82;100039.59;5074831;28;20028;-70
2023/01/27 02:17:25;;;;;;;8.82;5.57;;;;;;;-1.12;65.13;100069.69;5075046;28;20025;-62
2023/01/27 02:19:57;;;;;;;8.48;5.00;;;;;;;-1.12;64.87;100064.44;5074536;28;20068;-63
2023/01/27 02:22:55;;;;;;;7.97;5.07;;;;;;;-1.09;65.21;100064.34;5074200;28;20037;-61
2023/01/27 02:25:32;;;;;;;7.82;5.00;;;;;;;-1.17;65.04;100054.06;5074407;28;20051;-60
2023/01/27 02:27:58;;;;;;;7.55;4.35;;;;;;;-1.17;64.10;100066.34;5075041;28;20040;-63
2023/01/27 02:30:24;;;;;;;10.65;5.03;;;;;;;-1.24;64.21;100052.53;5071432;28;20037;-64
2023/01/27 02:32:49;;;;;;;8.07;5.00;;;;;;;-1.23;64.71;100056.00;5058999;28;20032;-63
2023/01/27 02:35:21;;;;;;;6.57;4.63;;;;;;;-1.23;64.38;100058.63;5054442;28;20041;-61
2023/01/27 02:37:49;;;;;;;6.75;4.53;;;;;;;-1.26;63.97;100050.81;5069384;28;20125;-63
2023/01/27 02:40:16;;;;;;;8.90;4.60;;;;;;;-1.23;63.99;100056.00;5073502;28;20067;-62
2023/01/27 02:42:41;;;;;;;6.28;4.10;;;;;;;-1.23;64.29;100046.34;5074408;28;20032;-62
2023/01/27 02:45:07;;;;;;;6.68;4.07;;;;;;;-1.32;63.83;100039.59;5074183;28;20040;-60
2023/01/27 02:47:33;;;;;;;7.32;4.47;;;;;;;-1.25;64.29;100049.91;5074141;28;20131;-60
2023/01/27 02:49:58;;;;;;;9.98;4.97;;;;;;;-1.26;64.32;100046.44;5073748;28;20413;-61
2023/01/27 02:52:24;;;;;;;5.25;3.72;;;;;;;-1.38;64.44;100021.38;5074198;28;20033;-65
2023/01/27 02:54:49;;;;;;;8.50;4.30;;;;;;;-1.20;64.07;100046.25;5074222;28;20040;-65
2023/01/27 02:57:14;;;;;;;6.25;4.22;;;;;;;-1.21;63.90;100039.28;5074210;28;20036;-64
2023/01/27 02:59:40;;;;;;;5.35;3.67;;;;;;;-1.20;64.24;100048.03;5072942;28;20070;-65
2023/01/27 03:02:06;;;;;;;6.75;4.15;;;;;;;-1.22;63.86;100052.47;5074067;28;20116;-63
2023/01/27 03:04:31;;;;;;;6.25;3.90;;;;;;;-1.25;63.87;100052.53;5072216;28;20073;-65
2023/01/27 03:06:57;;;;;;;5.35;3.42;;;;;;;-1.32;64.16;100055.34;5073209;28;20074;-64
2023/01/27 03:09:24;;;;;;;6.40;4.00;;;;;;;-1.53;64.67;100017.44;5073787;28;20043;-65
2023/01/27 03:20:00;;;;;;;6.57;4.10;;;;;;;-1.34;64.58;100065.03;5062696;28;20033;-66
2023/01/27 03:22:26;;;;;;;5.47;3.53;;;;;;;-1.36;64.35;100051.09;5062419;28;20040;-67
2023/01/27 03:24:51;;;;;;;4.97;3.47;;;;;;;-1.36;64.24;100051.09;5035692;28;20082;-67
2023/01/27 03:27:17;;;;;;;5.63;3.60;;;;;;;-1.31;63.86;100054.44;5052743;28;20041;-66
2023/01/27 03:29:54;;;;;;;5.70;3.35;;;;;;;-1.33;64.29;100061.50;5069077;28;20032;-65
2023/01/27 03:32:25;;;;;;;5.78;3.58;;;;;;;-1.56;64.53;100017.50;5073536;28;20041;-66
2023/01/27 03:34:50;;;;;;;6.30;3.95;;;;;;;-1.42;64.96;100035.50;5073315;28;20032;-65
2023/01/27 03:48:12;;;;;;;6.13;3.53;;;;;;;-1.26;63.98;100054.31;5072974;28;20070;-66
2023/01/27 03:50:41;;;;;;;5.88;3.55;;;;;;;-1.32;64.56;100060.59;5073222;28;20112;-67
2023/01/27 03:53:08;;;;;;;7.50;3.53;;;;;;;-1.27;64.46;100056.97;5072962;28;20485;-66
2023/01/27 03:55:35;;;;;;;5.95;3.40;;;;;;;-1.32;64.02;100068.50;5073233;28;20044;-67
2023/01/27 03:58:16;;;;;;;6.28;3.47;;;;;;;-1.33;63.94;100066.75;5072983;28;20025;-65
2023/01/27 04:00:43;;;;;;;4.45;3.00;;;;;;;-1.32;64.00;100068.50;5073140;28;20040;-66
2023/01/27 04:08:36;;;;;;;5.38;2.90;;;;;;;-1.32;63.87;100072.91;5052812;28;20032;-67
2023/01/27 04:13:47;;;;;;;8.13;3.55;;;;;;;-1.35;63.25;100070.31;5051805;28;20443;-68
2023/01/27 04:16:12;;;;;;;5.32;3.00;;;;;;;-1.31;63.59;100074.63;5068015;28;20025;-67
2023/01/27 04:18:38;;;;;;;5.63;3.35;;;;;;;-1.32;63.47;100076.38;5071683;28;20037;-66
2023/01/27 04:21:03;;;;;;;6.28;3.45;;;;;;;-1.47;63.16;100037.38;5071913;28;20078;-66
2023/01/27 04:23:29;;;;;;;5.90;3.22;;;;;;;-1.27;63.10;100091.13;5072549;28;20116;-66
2023/01/27 04:25:55;;;;;;;5.75;3.55;;;;;;;-1.32;63.34;100079.00;5072054;28;20052;-67
2023/01/27 04:28:21;;;;;;;5.28;3.47;;;;;;;-1.36;63.49;100081.75;5072698;28;20051;-67
2023/01/27 04:30:47;;;;;;;7.15;3.63;;;;;;;-1.51;63.63;100049.75;5072057;28;20052;-66
2023/01/27 04:33:14;;;;;;;7.38;3.38;;;;;;;-1.37;63.31;100082.63;5072137;28;20036;-67
2023/01/27 04:35:44;;;;;;;8.65;3.80;;;;;;;-1.37;63.76;100080.91;5072318;28;20379;-67
2023/01/27 04:38:11;;;;;;;6.95;5.07;;;;;;;-1.43;63.96;100090.69;5071574;28;20096;-67
2023/01/27 04:40:36;;;;;;;5.18;3.33;;;;;;;-1.46;63.93;100086.38;5072251;28;20033;-67
2023/01/27 04:43:02;;;;;;;6.35;3.42;;;;;;;-1.43;64.08;100086.31;5072263;28;20025;-67
2023/01/27 04:45:27;;;;;;;8.55;3.90;;;;;;;-1.49;64.30;100081.22;5071902;28;20528;-68
2023/01/27 04:47:52;;;;;;;5.30;3.40;;;;;;;-1.45;64.39;100094.22;5072292;28;20025;-66
2023/01/27 04:50:18;;;;;;;8.30;4.00;;;;;;;-1.42;64.16;100090.66;5072339;28;20040;-67
2023/01/27 04:52:44;;;;;;;7.53;3.88;;;;;;;-1.51;64.15;100094.41;5072128;28;20062;-67
2023/01/27 04:55:10;;;;;;;6.10;3.90;;;;;;;-1.45;64.83;100098.59;5072026;28;20435;-67
2023/01/27 04:57:36;;;;;;;7.60;4.13;;;;;;;-1.49;64.33;100091.72;5071477;28;20024;-66
2023/01/27 05:00:04;;;;;;;9.27;4.00;;;;;;;-1.46;64.85;100099.50;5071248;28;20320;-67
2023/01/27 05:02:31;;;;;;;7.05;3.90;;;;;;;-1.47;65.00;100095.16;5071917;28;20036;-67
2023/01/27 05:04:57;;;;;;;9.27;4.47;;;;;;;-1.52;64.82;100084.78;5071763;28;20051;-66
2023/01/27 05:07:22;;;;;;;5.53;3.75;;;;;;;-1.44;64.45;100095.09;5072123;28;20036;-65
2023/01/27 05:09:48;;;;;;;9.57;4.70;;;;;;;-1.43;64.51;100094.19;5071445;28;20025;-67
2023/01/27 05:12:13;;;;;;;6.70;3.88;;;;;;;-1.48;64.70;100081.19;5072054;28;20041;-66
2023/01/27 05:14:39;;;;;;;6.32;4.18;;;;;;;-1.42;64.59;100092.41;5072012;28;20117;-66
2023/01/27 05:17:04;;;;;;;6.00;3.97;;;;;;;-1.65;64.85;100065.00;5072442;28;20033;-67
2023/01/27 05:19:30;;;;;;;6.53;4.15;;;;;;;-1.39;64.52;100102.84;5071747;28;20120;-66
2023/01/27 05:21:55;;;;;;;6.45;4.00;;;;;;;-1.53;64.87;100087.44;5071927;28;20028;-65
2023/01/27 05:24:21;;;;;;;8.32;4.60;;;;;;;-1.56;64.84;100095.41;5072161;28;20119;-64
2023/01/27 05:26:46;;;;;;;10.57;4.95;;;;;;;-1.48;65.12;100109.19;5072466;28;20036;-65
2023/01/27 05:29:12;;;;;;;8.93;4.25;;;;;;;-1.50;65.43;100108.38;5075152;28;20399;-65
2023/01/27 05:31:37;;;;;;;6.13;4.07;;;;;;;-1.57;65.16;100105.03;5074573;28;20036;-66
2023/01/27 05:34:02;;;;;;;8.43;4.80;;;;;;;-1.57;65.32;100115.53;5075513;28;20037;-66
2023/01/27 05:36:29;;;;;;;8.40;4.53;;;;;;;-1.61;65.62;100112.16;5074356;28;20052;-68
2023/01/27 05:38:55;;;;;;;7.28;4.55;;;;;;;-1.56;65.62;100121.66;5075142;28;20113;-66
2023/01/27 05:41:21;;;;;;;7.47;4.07;;;;;;;-1.55;65.39;100118.13;5075076;28;20033;-67
2023/01/27 05:43:51;;;;;;;9.02;4.55;;;;;;;-1.50;65.25;100117.13;5074813;28;20407;-65
2023/01/27 05:46:19;;;;;;;7.50;4.35;;;;;;;-1.50;65.26;100130.25;5074368;28;20067;-68
2023/01/27 05:48:47;;;;;;;7.20;4.38;;;;;;;-1.50;64.78;100129.38;5075373;28;20033;-68
2023/01/27 05:51:15;;;;;;;10.45;4.68;;;;;;;-1.53;65.25;100138.22;5075182;28;20039;-66
2023/01/27 05:53:40;;;;;;;8.80;4.40;;;;;;;-1.48;65.62;100140.72;5075551;28;20040;-68
2023/01/27 05:56:09;;;;;;;7.20;4.28;;;;;;;-1.46;65.14;100137.16;5073463;28;20081;-67
2023/01/27 05:58:34;;;;;;;10.48;4.20;;;;;;;-1.68;65.03;100096.59;5045659;28;20029;-67
2023/01/27 06:01:12;;;;;;;7.75;3.95;;;;;;;-1.47;65.75;100138.06;5074154;28;20032;-69
2023/01/27 06:03:38;;;;;;;6.70;3.80;;;;;;;-1.56;65.88;100124.28;5075421;28;20059;-68
2023/01/27 06:06:04;;;;;;;7.32;4.72;;;;;;;-1.49;65.56;100128.47;5074258;28;20025;-66
2023/01/27 06:08:30;;;;;;;7.90;4.32;;;;;;;-1.47;65.73;100126.66;5074911;28;20064;-64
2023/01/27 06:10:57;;;;;;;8.05;4.40;;;;;;;-1.50;65.48;100121.50;5074855;28;20052;-67
2023/01/27 06:13:23;;;;;;;11.50;4.65;;;;;;;-1.41;66.03;100134.41;5073550;28;20428;-63
2023/01/27 06:15:49;;;;;;;9.98;4.63;;;;;;;-1.39;65.75;100129.97;5073467;28;20032;-67
2023/01/27 06:18:16;;;;;;;8.52;4.80;;;;;;;-1.57;65.42;100093.69;5074853;28;20036;-73
2023/01/27 06:20:42;;;;;;;7.35;4.70;;;;;;;-1.35;65.21;100123.75;5074747;28;20036;-65
2023/01/27 06:23:09;;;;;;;7.55;4.32;;;;;;;-1.31;65.61;100135.03;5073560;28;20097;-64
2023/01/27 06:25:40;;;;;;;8.73;4.45;;;;;;;-1.31;65.41;100130.63;5074719;28;20044;-64
2023/01/27 06:28:06;;;;;;;9.23;4.80;;;;;;;-1.56;64.92;100103.28;5074553;28;20116;-64
2023/01/27 06:30:36;;;;;;;11.13;4.45;;;;;;;-1.33;65.62;100142.06;5074636;28;20028;-64
2023/01/27 06:33:03;;;;;;;7.05;4.60;;;;;;;-1.31;65.23;100137.66;5074424;28;20359;-63
2023/01/27 06:35:30;;;;;;;12.35;4.22;;;;;;;-1.25;65.42;100140.13;5073774;28;20060;-69
2023/01/27 06:37:59;;;;;;;7.78;4.10;;;;;;;-1.18;64.73;100132.94;5073063;28;20032;-68
2023/01/27 06:40:26;;;;;;;9.40;5.10;;;;;;;-1.14;64.73;100133.69;5074205;28;20067;-65
2023/01/27 06:42:51;;;;;;;6.32;4.13;;;;;;;-1.16;64.43;100133.75;5073990;28;20024;-64
2023/01/27 06:45:17;;;;;;;8.52;4.72;;;;;;;-1.10;64.06;100138.84;5074111;28;20032;-65
2023/01/27 06:47:42;;;;;;;7.25;4.40;;;;;;;-1.15;64.62;100140.75;5073315;28;20031;-64
2023/01/27 06:50:09;;;;;;;6.70;4.53;;;;;;;-1.13;64.22;100141.56;5056443;28;20127;-67
2023/01/27 06:52:35;;;;;;;7.32;4.50;;;;;;;-1.12;64.51;100142.41;5073886;28;20804;-64
2023/01/27 06:55:02;;;;;;;7.95;4.93;;;;;;;-1.08;64.13;100150.16;5073469;28;20037;-65
2023/01/27 06:57:29;;;;;;;11.00;4.22;;;;;;;-1.31;63.91;100111.41;5073975;28;20054;-65
2023/01/27 06:59:55;;;;;;;7.05;4.72;;;;;;;-1.08;63.77;100152.78;5072983;28;20157;-67
2023/01/27 07:02:20;;;;;;;8.85;4.40;;;;;;;-1.14;64.01;100129.31;5074117;28;20024;-67
2023/01/27 07:04:46;;;;;;;10.45;4.75;;;;;;;-1.09;63.67;100143.19;5074216;28;20035;-68
2023/01/27 07:07:11;;;;;;;7.10;4.32;;;;;;;-1.06;63.37;100144.88;5073628;28;20202;-66
2023/01/27 07:09:36;;;;;;;9.07;5.07;;;;;;;-1.09;63.78;100144.94;5072913;28;20108;-67
2023/01/27 07:12:02;;;;;;;8.07;4.30;;;;;;;-1.03;63.92;100147.44;5073890;28;20052;-65
2023/01/27 07:14:28;;;;;;;6.88;4.57;;;;;;;-1.07;63.49;100136.13;5073637;28;20111;-66
2023/01/27 07:16:53;;;;;;;8.40;4.55;;;;;;;-0.97;62.84;100152.50;5073393;28;20435;-65
2023/01/27 07:19:18;;;;;;;7.57;4.40;;;;;;;-0.95;62.82;100155.94;5055810;28;20109;-67
2023/01/27 07:21:44;;;;;;;7.25;4.60;;;;;;;-1.13;62.88;100117.91;5074119;28;20119;-65
2023/01/27 07:24:09;;;;;;;9.50;4.85;;;;;;;-0.88;62.60;100161.91;5072836;28;20451;-65
2023/01/27 07:26:35;;;;;;;8.88;4.68;;;;;;;-0.89;62.92;100147.03;5053447;28;20034;-66
2023/01/27 07:29:00;;;;;;;7.13;4.45;;;;;;;-0.79;62.60;100166.91;5061270;28;20031;-66
2023/01/27 07:31:26;;;;;;;8.25;4.78;;;;;;;-0.83;61.94;100157.38;5063345;28;20127;-67
2023/01/27 07:33:52;;;;;;;11.48;5.07;;;;;;;-0.79;62.34;100164.25;5073341;28;20035;-66
2023/01/27 07:36:18;;;;;;;7.03;4.53;;;;;;;-0.76;62.23;100165.97;5071835;28;20048;-70
2023/01/27 07:38:47;;;;;;;8.75;4.40;;;;;;;-0.70;62.08;100164.94;5055784;28;20085;-68
2023/01/27 07:41:13;;;;;;;7.72;4.35;;;;;;;-0.65;62.06;100168.28;5072793;28;20469;-67
2023/01/27 07:43:38;;;;;;;8.48;4.30;;;;;;;-0.59;61.98;100173.34;5073423;28;20044;-67
2023/01/27 07:46:04;;;;;;;7.43;4.30;;;;;;;-0.60;61.61;100164.63;5071943;28;20059;-68
2023/01/27 07:48:30;;;;;;;9.38;4.65;;;;;;;-0.50;61.88;100175.72;5073044;28;20442;-67
2023/01/27 07:50:55;;;;;;;8.25;5.22;;;;;;;-0.42;61.22;100175.50;5072348;28;20451;-66
2023/01/27 07:53:21;;;;;;;9.05;4.72;;;;;;;-0.39;61.44;100175.41;5072499;28;20039;-65
2023/01/27 07:55:46;;;;;;;7.68;4.85;;;;;;;-0.34;60.95;100184.03;5054467;28;20350;-60
2023/01/27 07:58:11;;;;;;;10.35;5.30;;;;;;;-0.31;61.41;100180.44;5055382;28;20044;-65
2023/01/27 08:00:37;;;;;;;9.90;5.20;;;;;;;-0.23;60.77;100180.22;5073308;28;20035;-64
2023/01/27 08:03:04;;;;;;;8.35;5.22;;;;;;;-0.20;60.61;100183.63;5072620;28;20079;-64
2023/01/27 08:05:32;;;;;;;7.43;4.57;;;;;;;-0.17;60.69;100185.28;5072490;28;20100;-65
2023/01/27 08:08:02;;;;;;;9.27;4.80;;;;;;;-0.11;60.42;100189.50;5072987;28;20032;-62
2023/01/27 08:10:28;;;;;;;8.38;4.97;;;;;;;-0.18;60.36;100180.91;5072372;28;20044;-64
2023/01/27 08:12:53;;;;;;;6.60;4.75;;;;;;;-0.26;60.88;100181.16;5073255;28;20078;-63
2023/01/27 08:15:19;;;;;;;9.52;5.50;;;;;;;-0.24;60.44;100183.75;5071882;28;20332;-74
2023/01/27 08:17:52;;;;;;;8.90;4.75;;;;;;;-0.19;60.70;100181.84;5072972;28;20119;-64
2023/01/27 08:20:17;;;;;;;10.55;4.80;;;;;;;-0.27;60.73;100184.69;5072846;28;20032;-63
2023/01/27 08:22:43;;;;;;;8.65;5.07;;;;;;;-0.23;60.57;100186.34;5072468;28;20119;-61
2023/01/27 08:25:09;;;;;;;7.78;5.10;;;;;;;-0.18;60.58;100186.19;5062688;28;20936;-63
2023/01/27 08:27:34;;;;;;;7.97;4.85;;;;;;;-0.12;59.75;100187.78;5067707;28;20036;-61
2023/01/27 08:29:59;;;;;;;8.23;4.72;;;;;;;-0.11;60.18;100184.25;5061153;28;20043;-62
2023/01/27 08:32:25;;;;;;;8.35;4.60;;;;;;;-0.08;60.20;100189.41;5071665;28;20035;-62
2023/01/27 08:34:50;;;;;;;8.43;4.63;;;;;;;-0.04;60.19;100185.75;5072302;28;20046;-60
2023/01/27 08:37:16;;;;;;;9.93;5.85;;;;;;;-0.07;60.04;100164.81;5071802;28;20383;-56
2023/01/27 08:39:41;;;;;;;8.23;4.97;;;;;;;0.06;59.92;100176.69;5070772;28;20033;-62
2023/01/27 08:42:06;;;;;;;9.15;5.25;;;;;;;-0.02;59.96;100147.09;5071024;28;20093;-60
2023/01/27 08:44:32;;;;;;;14.60;5.20;;;;;;;0.27;59.55;100177.75;5071862;28;20090;-60
2023/01/27 08:46:57;;;;;;;10.50;5.40;;;;;;;0.32;59.24;100180.25;5070138;28;20037;-60
2023/01/27 08:49:23;;;;;;;6.93;4.88;;;;;;;0.29;59.13;100167.19;5072004;28;20033;-62
2023/01/27 08:51:48;;;;;;;12.05;4.85;;;;;;;0.38;58.87;100172.16;5072310;28;20317;-60
2023/01/27 08:54:14;;;;;;;10.20;4.93;;;;;;;0.41;58.80;100179.09;5070649;28;20033;-58
2023/01/27 08:56:39;;;;;;;10.65;5.45;;;;;;;0.41;58.81;100179.09;5071395;28;20021;-57
2023/01/27 08:59:05;;;;;;;8.30;5.15;;;;;;;0.41;58.92;100182.59;5070451;28;20033;-63
2023/01/27 09:01:31;;;;;;;9.43;5.03;;;;;;;0.39;58.94;100183.56;5069642;28;20060;-61
2023/01/27 09:03:56;;;;;;;8.80;4.38;;;;;;;0.37;58.54;100180.13;5068584;28;20115;-62
2023/01/27 09:06:22;;;;;;;7.72;4.90;;;;;;;0.19;59.06;100160.47;5075277;28;20033;-64
2023/01/27 09:09:07;;;;;;;6.40;4.72;;;;;;;0.38;58.65;100193.22;5075750;28;20454;-59
2023/01/27 09:11:32;;;;;;;7.53;4.70;;;;;;;0.42;58.90;100199.25;5071935;28;20036;-58
2023/01/27 09:13:58;;;;;;;8.63;5.18;;;;;;;0.40;58.71;100187.91;5073680;28;20028;-58
2023/01/27 09:16:23;;;;;;;10.80;5.15;;;;;;;0.41;58.70;100187.84;5075474;28;20043;-54
2023/01/27 09:18:49;;;;;;;8.00;4.82;;;;;;;0.43;58.61;100183.38;5075276;28;20423;-57
2023/01/27 09:21:14;;;;;;;8.77;5.70;;;;;;;0.41;58.59;100182.59;5074711;28;20040;-64
2023/01/27 09:23:40;;;;;;;11.52;5.68;;;;;;;0.43;58.38;100182.53;5075538;28;20447;-61
2023/01/27 09:26:05;;;;;;;7.85;4.75;;;;;;;0.41;58.85;100179.09;5075024;28;20128;-61
2023/01/27 09:28:30;;;;;;;11.82;5.28;;;;;;;0.42;58.68;100180.81;5074530;28;20035;-57
2023/01/27 09:30:57;;;;;;;9.27;5.30;;;;;;;0.42;58.86;100191.34;5064006;28;20024;-56
2023/01/27 09:33:24;;;;;;;9.15;5.43;;;;;;;0.38;58.71;100190.59;5074306;28;20415;-60
2023/01/27 09:35:58;;;;;;;7.65;5.22;;;;;;;0.44;58.87;100192.16;5065143;28;20116;-61
2023/01/27 09:38:29;;;;;;;8.52;5.32;;;;;;;0.38;58.85;100181.84;5075502;28;20063;-59
2023/01/27 09:41:16;;;;;;;9.20;5.47;;;;;;;0.47;59.17;100189.44;5056416;28;20026;-59
2023/01/27 09:43:59;;;;;;;9.40;5.47;;;;;;;0.46;59.00;100195.59;5073481;28;20041;-60
2023/01/27 09:47:01;;;;;;;10.48;5.93;;;;;;;0.61;58.85;100188.97;5073682;28;20033;-55
2023/01/27 09:49:32;;;;;;;8.73;5.55;;;;;;;0.62;58.62;100190.69;5074711;28;20029;-58
2023/01/27 09:52:33;;;;;;;11.50;5.95;;;;;;;0.73;58.90;100192.13;5071850;28;20032;-56
2023/01/27 09:55:05;;;;;;;8.68;5.43;;;;;;;0.56;58.19;100154.00;5053252;28;20426;-59
2023/01/27 09:57:43;;;;;;;8.63;5.50;;;;;;;0.81;57.96;100190.06;5056171;28;20060;-58
2023/01/27 10:00:52;;;;;;;8.90;5.90;;;;;;;0.77;58.44;100191.94;5063237;28;20037;-59
2023/01/27 10:03:36;;;;;;;10.40;5.90;;;;;;;0.74;58.48;100185.94;5071776;28;20025;-56
2023/01/27 10:06:18;;;;;;;8.85;5.65;;;;;;;0.65;58.84;100174.75;5073468;28;20351;-54
2023/01/27 10:09:13;;;;;;;9.57;5.90;;;;;;;0.68;58.67;100179.09;5062095;28;20028;-57
2023/01/27 10:12:09;;;;;;;8.98;5.85;;;;;;;0.73;58.70;100182.41;5066597;28;20076;-58
2023/01/27 10:14:46;;;;;;;12.75;6.40;;;;;;;0.81;58.31;100174.25;5073355;28;20029;-58
2023/01/27 10:17:23;;;;;;;10.50;5.68;;;;;;;0.84;58.00;100182.94;5074659;28;20086;-58
2023/01/27 10:20:12;;;;;;;9.50;6.18;;;;;;;0.85;58.35;100184.66;5073075;28;20040;-60
2023/01/27 10:22:44;;;;;;;10.45;6.15;;;;;;;0.75;58.21;100182.38;5074471;28;20028;-68
2023/01/27 10:25:33;;;;;;;9.88;6.20;;;;;;;0.79;58.36;100184.84;5073204;28;20094;-58
2023/01/27 10:28:10;;;;;;;8.20;5.47;;;;;;;0.78;58.12;100179.63;5074197;28;20051;-60
2023/01/27 10:30:37;;;;;;;8.73;5.82;;;;;;;0.76;58.44;100184.09;5074503;28;20044;-60
2023/01/27 10:33:18;;;;;;;10.43;6.10;;;;;;;0.81;58.64;100184.78;5074067;28;20087;-55
2023/01/27 10:35:52;;;;;;;9.05;5.75;;;;;;;0.73;58.37;100181.56;5069029;28;20053;-58
2023/01/27 10:38:29;;;;;;;11.57;6.80;;;;;;;0.70;58.80;100190.44;5054408;28;20053;-58
2023/01/27 10:41:10;;;;;;;8.90;5.72;;;;;;;0.66;58.73;100187.03;5062833;28;20048;-56
2023/01/27 10:43:53;;;;;;;8.77;5.97;;;;;;;0.59;59.13;100188.16;5072804;28;20036;-60
2023/01/27 10:46:43;;;;;;;11.52;6.22;;;;;;;0.68;59.15;100193.09;5073826;28;20036;-62
2023/01/27 10:49:29;;;;;;;8.50;6.15;;;;;;;0.68;59.19;100185.19;5074032;28;20043;-62
2023/01/27 10:52:03;;;;;;;13.45;6.50;;;;;;;0.74;58.96;100194.69;5073132;28;20032;-61
2023/01/27 10:54:37;;;;;;;11.02;6.40;;;;;;;0.77;58.98;100196.38;5074124;28;20028;-62
2023/01/27 10:57:13;;;;;;;9.13;5.82;;;;;;;0.81;58.90;100197.97;5061274;28;20033;-62
2023/01/27 10:59:38;;;;;;;11.75;6.40;;;;;;;0.73;58.95;100189.47;5053419;28;20114;-60
2023/01/27 11:02:28;;;;;;;12.27;6.53;;;;;;;0.83;59.22;100194.34;5053938;28;20423;-58
2023/01/27 11:05:01;;;;;;;10.07;5.97;;;;;;;0.89;58.55;100203.00;5053849;28;20067;-66
2023/01/27 11:07:26;;;;;;;30.85;16.15;;;;;;;0.86;58.96;100193.41;5068217;28;20102;-62
2023/01/27 11:09:58;;;;;;;12.98;8.13;;;;;;;0.99;58.99;100209.66;5072301;28;20032;-60
2023/01/27 11:12:46;;;;;;;13.65;7.70;;;;;;;1.12;58.86;100202.19;5067725;28;20056;-56
2023/01/27 11:15:29;;;;;;;10.25;6.78;;;;;;;1.13;58.68;100203.91;5061598;28;20032;-67
2023/01/27 11:18:00;;;;;;;10.35;6.93;;;;;;;1.13;58.67;100211.81;5073191;28;20032;-68
2023/01/27 11:20:30;;;;;;;11.32;6.38;;;;;;;1.06;58.61;100205.88;5072206;28;20032;-66
2023/01/27 11:23:09;;;;;;;11.63;6.70;;;;;;;1.11;58.81;100208.38;5057717;28;21157;-64
2023/01/27 11:25:44;;;;;;;15.52;7.40;;;;;;;1.10;59.35;100204.00;5070264;28;20029;-61
2023/01/27 11:28:36;;;;;;;14.00;7.35;;;;;;;1.16;59.37;100201.16;5072318;28;20474;-64
2023/01/27 11:31:10;;;;;;;11.57;7.47;;;;;;;1.10;59.10;100190.81;5055197;28;20078;-63
2023/01/27 11:34:02;;;;;;;13.73;8.27;;;;;;;1.12;59.00;100200.41;5072018;28;20044;-65
2023/01/27 11:36:28;;;;;;;9.88;6.60;;;;;;;1.08;58.90;100198.78;5072627;28;20273;-63
2023/01/27 11:38:56;;;;;;;10.70;6.82;;;;;;;0.92;58.89;100169.44;5073015;28;20052;-65
2023/01/27 11:41:23;;;;;;;14.27;7.50;;;;;;;1.04;59.29;100197.16;5073739;28;20041;-65
2023/01/27 11:43:48;;;;;;;9.70;6.93;;;;;;;0.98;59.17;100202.66;5073197;28;20035;-64
2023/01/27 11:46:20;;;;;;;11.98;7.28;;;;;;;1.00;59.62;100201.72;5073101;28;20029;-62
2023/01/27 11:48:53;;;;;;;13.52;7.75;;;;;;;0.99;59.35;100209.66;5072963;28;20036;-64
2023/01/27 11:51:22;;;;;;;12.63;6.85;;;;;;;0.92;59.52;100208.16;5072373;28;20089;-63
2023/01/27 11:53:56;;;;;;;15.82;6.60;;;;;;;0.98;59.79;100203.53;5073000;28;20451;-65
2023/01/27 11:56:23;;;;;;;13.07;7.28;;;;;;;0.74;59.45;100170.13;5072761;28;20033;-65
2023/01/27 11:59:12;;;;;;;11.35;7.22;;;;;;;1.07;59.95;100212.03;5071730;28;20033;-65
2023/01/27 12:02:08;;;;;;;11.95;7.32;;;;;;;1.14;59.80;100224.06;5072406;28;20032;-63
2023/01/27 12:04:50;;;;;;;13.93;7.50;;;;;;;1.13;59.26;100222.34;5065917;28;20036;-65
2023/01/27 12:07:34;;;;;;;16.15;7.75;;;;;;;1.12;59.34;100213.59;5071719;28;20042;-65